createdAt,value
2018-06-28T00:00:40.740Z,78.50
2018-06-28T00:03:08.606Z,78.40
2018-06-28T00:05:36.427Z,79.30
2018-06-28T00:08:04.285Z,79.60
2018-06-28T00:10:32.126Z,81.10
2018-06-28T00:13:00.041Z,80.10
2018-06-28T00:15:27.918Z,79.00
2018-06-28T00:17:55.783Z,78.50
2018-06-28T00:20:23.723Z,78.50
2018-06-28T00:22:51.622Z,79.10
2018-06-28T00:25:19.518Z,79.40
2018-06-28T00:27:47.358Z,80.00
2018-06-28T00:30:15.285Z,80.30
2018-06-28T00:32:43.154Z,79.40
2018-06-28T00:35:10.967Z,79.20
2018-06-28T00:37:38.851Z,80.70
2018-06-28T00:40:06.702Z,80.70
2018-06-28T00:42:34.572Z,80.30
2018-06-28T00:45:02.716Z,81.40
2018-06-28T00:47:30.676Z,81.10
2018-06-28T00:49:58.486Z,81.80
2018-06-28T00:52:26.418Z,82.00
2018-06-28T00:54:54.345Z,82.10
2018-06-28T00:57:22.239Z,82.90
2018-06-28T00:59:50.150Z,83.50
2018-06-28T01:02:18.017Z,83.60
2018-06-28T01:04:45.848Z,85.40
2018-06-28T01:07:13.767Z,85.50
2018-06-28T01:09:41.647Z,88.20
2018-06-28T01:12:09.527Z,88.10
2018-06-28T01:14:37.489Z,89.30
2018-06-28T01:17:05.454Z,90.40
2018-06-28T01:19:33.424Z,90.50
2018-06-28T01:22:01.340Z,90.20
2018-06-28T01:24:29.250Z,91.10
2018-06-28T01:26:57.168Z,91.00
2018-06-28T01:29:25.084Z,91.60
2018-06-28T01:31:52.973Z,92.00
2018-06-28T01:34:20.834Z,92.20
2018-06-28T01:36:48.662Z,92.30
2018-06-28T01:39:16.464Z,93.00
2018-06-28T01:41:55.492Z,93.00
2018-06-28T01:46:51.111Z,93.60
2018-06-28T01:49:18.818Z,94.00
2018-06-28T01:51:46.649Z,94.00
2018-06-28T01:54:14.508Z,94.80
2018-06-28T01:56:42.329Z,95.10
2018-06-28T01:59:10.188Z,95.00
2018-06-28T02:01:38.106Z,94.70
2018-06-28T02:04:05.971Z,94.80
2018-06-28T02:06:34.193Z,94.20
2018-06-28T02:09:02.138Z,93.80
2018-06-28T02:11:30.008Z,93.60
2018-06-28T02:13:57.887Z,93.60
2018-06-28T02:16:25.759Z,93.70
2018-06-28T02:18:53.631Z,93.50
2018-06-28T02:21:21.452Z,93.40
2018-06-28T02:26:16.998Z,93.20
2018-06-28T02:28:44.924Z,93.60
2018-06-28T02:31:12.841Z,93.10
2018-06-28T02:33:40.715Z,93.00
2018-06-28T02:36:08.575Z,93.00
2018-06-28T02:38:36.441Z,93.70
2018-06-28T02:41:04.310Z,93.20
2018-06-28T02:43:32.127Z,93.80
2018-06-28T02:45:59.999Z,93.70
2018-06-28T02:48:27.843Z,93.90
2018-06-28T02:50:55.755Z,94.20
2018-06-28T02:53:23.637Z,94.40
2018-06-28T02:55:51.522Z,94.40
2018-06-28T02:58:19.347Z,94.50
2018-06-28T03:00:47.202Z,94.80
2018-06-28T03:03:15.122Z,94.90
2018-06-28T03:05:43.070Z,95.70
2018-06-28T03:08:10.891Z,95.20
2018-06-28T03:10:38.782Z,95.80
2018-06-28T03:13:06.585Z,95.70
2018-06-28T03:15:34.470Z,96.00
2018-06-28T03:18:02.280Z,95.60
2018-06-28T03:20:30.078Z,95.60
2018-06-28T03:22:58.061Z,95.90
2018-06-28T03:25:25.918Z,95.40
2018-06-28T03:27:53.769Z,94.80
2018-06-28T03:30:21.654Z,95.30
2018-06-28T03:32:49.524Z,95.10
2018-06-28T03:35:17.390Z,95.30
2018-06-28T03:37:45.305Z,95.60
2018-06-28T03:40:13.114Z,95.40
2018-06-28T03:42:40.919Z,95.30
2018-06-28T03:45:08.807Z,95.40
2018-06-28T03:47:36.578Z,95.30
2018-06-28T03:50:04.455Z,95.60
2018-06-28T03:52:32.371Z,95.70
2018-06-28T03:55:00.203Z,95.70
2018-06-28T03:57:28.121Z,96.00
2018-06-28T03:59:55.955Z,96.10
2018-06-28T04:02:23.770Z,96.10
2018-06-28T04:04:51.628Z,96.90
2018-06-28T04:07:19.515Z,96.30
2018-06-28T04:09:47.454Z,96.40
2018-06-28T04:14:43.042Z,96.60
2018-06-28T04:17:10.870Z,96.70
2018-06-28T04:19:38.762Z,96.30
2018-06-28T04:22:06.651Z,96.20
2018-06-28T04:24:34.672Z,96.50
2018-06-28T04:27:02.562Z,96.90
2018-06-28T04:29:30.387Z,96.40
2018-06-28T04:31:58.198Z,97.00
2018-06-28T04:34:26.066Z,96.50
2018-06-28T04:36:54.020Z,96.70
2018-06-28T04:39:21.809Z,96.20
2018-06-28T04:41:49.659Z,95.70
2018-06-28T04:44:17.494Z,94.50
2018-06-28T04:46:45.310Z,95.40
2018-06-28T04:49:13.145Z,95.50
2018-06-28T04:51:40.928Z,95.40
2018-06-28T04:54:08.798Z,95.70
2018-06-28T04:56:36.779Z,95.40
2018-06-28T04:59:04.973Z,95.00
2018-06-28T05:01:32.840Z,95.60
2018-06-28T05:04:00.718Z,95.30
2018-06-28T05:06:28.609Z,94.60
2018-06-28T05:08:56.423Z,94.50
2018-06-28T05:11:24.270Z,94.80
2018-06-28T05:13:52.165Z,94.90
2018-06-28T05:16:19.944Z,94.70
2018-06-28T05:18:47.842Z,94.50
2018-06-28T05:21:15.715Z,93.80
2018-06-28T05:23:43.595Z,94.10
2018-06-28T05:26:11.671Z,93.70
2018-06-28T05:28:39.576Z,93.40
2018-06-28T05:31:07.395Z,93.00
2018-06-28T05:33:35.268Z,92.90
2018-06-28T05:36:03.125Z,92.80
2018-06-28T05:38:30.940Z,92.60
2018-06-28T05:40:58.943Z,92.30
2018-06-28T05:43:26.758Z,92.00
2018-06-28T05:45:55.040Z,92.30
2018-06-28T05:48:23.092Z,92.10
2018-06-28T05:50:50.999Z,92.00
2018-06-28T05:53:18.972Z,91.70
2018-06-28T05:55:46.893Z,91.10
2018-06-28T05:58:14.714Z,90.70
2018-06-28T06:00:42.556Z,91.00
2018-06-28T06:03:10.367Z,90.60
2018-06-28T06:05:38.202Z,90.50
2018-06-28T06:08:06.053Z,90.30
2018-06-28T06:10:33.837Z,90.20
2018-06-28T06:13:01.723Z,90.00
2018-06-28T06:15:29.546Z,89.60
2018-06-28T06:17:57.461Z,89.30
2018-06-28T06:20:25.389Z,89.00
2018-06-28T06:22:53.097Z,86.60
2018-06-28T06:25:21.090Z,85.10
2018-06-28T06:27:48.869Z,84.90
2018-06-28T06:30:17.175Z,83.60
2018-06-28T06:32:45.051Z,82.80
2018-06-28T06:35:12.896Z,80.30
2018-06-28T06:37:40.978Z,80.30
2018-06-28T06:40:08.767Z,79.00
2018-06-28T06:42:36.565Z,79.00
2018-06-28T06:45:04.840Z,79.10
2018-06-28T06:47:38.811Z,78.10
2018-06-28T06:50:06.731Z,74.80
2018-06-28T06:52:34.631Z,73.70
2018-06-28T06:55:02.557Z,72.70
2018-06-28T06:57:30.471Z,72.10
2018-06-28T06:59:58.317Z,71.10
2018-06-28T07:02:26.115Z,70.90
2018-06-28T07:04:54.465Z,68.80
2018-06-28T07:07:22.399Z,68.30
2018-06-28T07:09:50.270Z,68.30
2018-06-28T07:12:18.151Z,67.50
2018-06-28T07:14:45.985Z,66.50
2018-06-28T07:17:13.854Z,63.70
2018-06-28T07:19:41.887Z,59.20
2018-06-28T07:22:09.742Z,56.10
2018-06-28T07:24:37.560Z,55.30
2018-06-28T07:27:05.484Z,55.80
2018-06-28T07:29:33.415Z,57.10
2018-06-28T07:32:01.312Z,58.60
2018-06-28T07:34:29.250Z,58.10
2018-06-28T07:36:57.101Z,56.70
2018-06-28T07:39:24.912Z,53.10
2018-06-28T07:41:52.781Z,48.40
2018-06-28T07:44:20.592Z,42.80
2018-06-28T07:46:48.479Z,38.10
2018-06-28T07:49:16.256Z,33.80
2018-06-28T07:51:44.335Z,31.70
2018-06-28T07:54:12.301Z,30.30
2018-06-28T07:56:40.182Z,30.00
2018-06-28T07:59:08.010Z,29.00
2018-06-28T08:01:35.766Z,28.80
2018-06-28T08:04:03.560Z,28.10
2018-06-28T08:06:31.427Z,27.10
2018-06-28T08:08:59.154Z,26.20
2018-06-28T08:11:26.898Z,25.80
2018-06-28T08:13:54.634Z,25.40
2018-06-28T08:16:22.443Z,25.20
2018-06-28T08:18:50.321Z,25.30
2018-06-28T08:21:18.103Z,26.00
2018-06-28T08:23:45.910Z,25.00
2018-06-28T08:26:13.683Z,25.70
2018-06-28T08:28:41.575Z,24.60
2018-06-28T08:31:09.395Z,24.80
2018-06-28T08:33:37.239Z,25.20
2018-06-28T08:36:05.107Z,24.90
2018-06-28T08:38:32.861Z,24.20
2018-06-28T08:41:00.622Z,23.80
2018-06-28T08:43:28.423Z,23.60
2018-06-28T08:45:56.272Z,24.20
2018-06-28T08:48:24.062Z,24.30
2018-06-28T08:53:26.306Z,24.60
2018-06-28T08:55:54.345Z,24.80
2018-06-28T08:58:22.529Z,25.30
2018-06-28T09:00:50.400Z,25.70
2018-06-28T09:03:18.162Z,25.10
2018-06-28T09:05:46.024Z,24.90
2018-06-28T09:08:13.878Z,24.60
2018-06-28T09:10:41.718Z,24.70
2018-06-28T09:13:09.642Z,24.00
2018-06-28T09:15:37.431Z,23.40
2018-06-28T09:18:05.206Z,23.80
2018-06-28T09:20:33.036Z,24.40
2018-06-28T09:23:00.900Z,23.90
2018-06-28T09:25:28.783Z,24.10
2018-06-28T09:27:56.684Z,24.10
2018-06-28T09:30:24.591Z,24.30
2018-06-28T09:32:52.370Z,24.20
2018-06-28T09:35:20.216Z,25.00
2018-06-28T09:37:48.087Z,26.10
2018-06-28T09:40:16.012Z,25.60
2018-06-28T09:42:43.897Z,25.20
2018-06-28T09:45:11.794Z,24.70
2018-06-28T09:47:39.722Z,24.80
2018-06-28T09:50:07.670Z,24.00
2018-06-28T09:52:35.520Z,23.80
2018-06-28T09:55:03.494Z,23.70
2018-06-28T09:57:31.503Z,23.50
2018-06-28T09:59:59.342Z,23.50
2018-06-28T10:02:27.235Z,23.60
2018-06-28T10:04:55.017Z,23.40
2018-06-28T10:07:22.814Z,23.10
2018-06-28T10:09:50.666Z,22.40
2018-06-28T10:12:18.526Z,22.60
2018-06-28T10:14:46.292Z,22.70
2018-06-28T10:17:14.010Z,23.10
2018-06-28T10:19:41.875Z,22.60
2018-06-28T10:22:09.739Z,22.30
2018-06-28T10:24:37.577Z,22.60
2018-06-28T10:27:05.522Z,22.90
2018-06-28T10:29:33.342Z,22.90
2018-06-28T10:32:01.154Z,22.90
2018-06-28T10:34:29.097Z,22.00
2018-06-28T10:36:56.964Z,23.50
2018-06-28T10:39:24.814Z,24.60
2018-06-28T10:41:52.756Z,24.30
2018-06-28T10:44:20.551Z,23.70
2018-06-28T10:46:52.660Z,23.80
2018-06-28T10:49:20.565Z,23.80
2018-06-28T10:51:48.387Z,25.10
2018-06-28T10:54:16.209Z,25.30
2018-06-28T10:56:43.971Z,25.40
2018-06-28T10:59:11.855Z,25.10
2018-06-28T11:01:39.732Z,24.50
2018-06-28T11:04:07.599Z,24.60
2018-06-28T11:06:35.430Z,24.60
2018-06-28T11:09:05.703Z,25.40
2018-06-28T11:11:33.601Z,24.50
2018-06-28T11:14:01.353Z,26.00
2018-06-28T11:16:29.323Z,26.20
2018-06-28T11:18:57.234Z,26.20
2018-06-28T11:21:25.103Z,25.90
2018-06-28T11:23:52.954Z,26.10
2018-06-28T11:26:20.897Z,26.60
2018-06-28T11:28:48.798Z,27.20
2018-06-28T11:31:16.573Z,26.90
2018-06-28T11:33:44.553Z,26.50
2018-06-28T11:36:12.453Z,26.10
2018-06-28T11:38:40.387Z,27.40
2018-06-28T11:41:08.140Z,27.10
2018-06-28T11:43:36.022Z,27.60
2018-06-28T11:46:03.883Z,28.10
2018-06-28T11:48:31.670Z,27.30
2018-06-28T11:50:59.267Z,27.10
2018-06-28T11:53:26.848Z,26.90
2018-06-28T11:55:54.477Z,26.30
2018-06-28T11:58:22.070Z,25.90
2018-06-28T12:00:49.678Z,26.60
2018-06-28T12:03:17.271Z,25.80
2018-06-28T12:05:44.839Z,25.20
2018-06-28T12:08:12.494Z,24.60
2018-06-28T12:10:40.116Z,25.10
2018-06-28T12:13:07.730Z,26.10
2018-06-28T12:15:35.281Z,26.60
2018-06-28T12:18:02.944Z,27.10
2018-06-28T12:20:30.848Z,27.00
2018-06-28T12:22:58.493Z,26.60
2018-06-28T12:25:26.117Z,26.80
2018-06-28T12:27:53.705Z,27.50
2018-06-28T12:30:21.362Z,27.90
2018-06-28T12:32:49.022Z,27.60
2018-06-28T12:35:16.616Z,27.60
2018-06-28T12:37:44.285Z,29.10
2018-06-28T12:40:11.893Z,29.60
2018-06-28T12:42:39.527Z,30.00
2018-06-28T12:45:07.160Z,30.60
2018-06-28T12:47:48.441Z,30.30
2018-06-28T12:50:16.086Z,30.30
2018-06-28T12:52:50.057Z,31.00
2018-06-28T12:55:18.706Z,31.10
2018-06-28T12:57:46.845Z,30.70
2018-06-28T13:00:15.451Z,30.40
2018-06-28T13:02:43.396Z,30.30
2018-06-28T13:05:12.013Z,30.10
2018-06-28T13:07:39.628Z,29.70
2018-06-28T13:10:08.821Z,29.30
2018-06-28T13:12:36.811Z,29.30
2018-06-28T13:15:05.084Z,29.10
2018-06-28T13:17:32.691Z,29.60
2018-06-28T13:20:00.411Z,30.20
2018-06-28T13:22:28.112Z,30.10
2018-06-28T13:24:55.704Z,31.00
2018-06-28T13:27:23.286Z,31.10
2018-06-28T13:29:50.857Z,30.00
2018-06-28T13:32:18.413Z,30.40
2018-06-28T13:34:46.177Z,30.60
2018-06-28T13:37:13.925Z,31.00
2018-06-28T13:39:41.529Z,31.00
2018-06-28T13:42:09.498Z,31.50
2018-06-28T13:44:36.927Z,32.20
2018-06-28T13:47:04.821Z,32.10
2018-06-28T13:49:32.481Z,32.60
2018-06-28T13:52:00.221Z,32.70
2018-06-28T13:54:27.980Z,33.00
2018-06-28T13:56:55.667Z,32.90
2018-06-28T13:59:23.299Z,31.90
2018-06-28T14:01:51.134Z,31.60
2018-06-28T14:04:18.766Z,30.80
2018-06-28T14:06:46.329Z,30.60
2018-06-28T14:09:13.945Z,31.20
2018-06-28T14:11:41.813Z,31.90
2018-06-28T14:14:09.446Z,32.30
2018-06-28T14:16:37.144Z,32.30
2018-06-28T14:19:04.778Z,31.80
2018-06-28T14:21:32.394Z,30.60
2018-06-28T14:24:00.000Z,31.70
2018-06-28T14:26:27.634Z,32.70
2018-06-28T14:28:55.238Z,33.70
2018-06-28T14:31:22.864Z,34.10
2018-06-28T14:33:50.481Z,34.30
2018-06-28T14:36:18.113Z,34.40
2018-06-28T14:38:45.794Z,34.20
2018-06-28T14:41:19.926Z,33.20
2018-06-28T14:43:47.486Z,33.00
2018-06-28T14:46:15.097Z,32.60
2018-06-28T14:48:42.645Z,32.50
2018-06-28T14:51:10.267Z,32.80
2018-06-28T14:53:37.921Z,32.80
2018-06-28T14:56:05.617Z,33.70
2018-06-28T14:58:33.207Z,35.20
2018-06-28T15:01:00.825Z,35.60
2018-06-28T15:03:28.661Z,36.00
2018-06-28T15:05:56.283Z,36.20
2018-06-28T15:08:23.907Z,35.80
2018-06-28T15:10:51.529Z,35.70
2018-06-28T15:13:19.133Z,35.30
2018-06-28T15:15:46.716Z,34.00
2018-06-28T15:18:14.293Z,34.00
2018-06-28T15:20:41.881Z,33.60
2018-06-28T15:23:09.483Z,34.30
2018-06-28T15:25:37.134Z,34.70
2018-06-28T15:28:04.781Z,35.80
2018-06-28T15:30:32.422Z,35.40
2018-06-28T15:33:00.178Z,35.50
2018-06-28T15:35:27.897Z,35.00
2018-06-28T15:37:55.614Z,34.50
2018-06-28T15:40:23.262Z,34.30
2018-06-28T15:42:50.872Z,34.60
2018-06-28T15:45:18.503Z,34.40
2018-06-28T15:47:46.161Z,34.40
2018-06-28T15:50:13.776Z,35.10
2018-06-28T15:55:08.894Z,35.20
2018-06-28T15:57:36.569Z,35.00
2018-06-28T16:00:05.089Z,35.10
2018-06-28T16:02:32.735Z,34.30
2018-06-28T16:05:00.429Z,34.00
2018-06-28T16:07:28.083Z,35.10
2018-06-28T16:09:55.729Z,34.50
2018-06-28T16:12:23.383Z,35.00
2018-06-28T16:14:51.065Z,35.70
2018-06-28T16:17:18.658Z,35.60
2018-06-28T16:19:46.259Z,35.90
2018-06-28T16:22:13.885Z,35.60
2018-06-28T16:24:41.490Z,36.20
2018-06-28T16:27:09.095Z,36.90
2018-06-28T16:29:36.698Z,37.60
2018-06-28T16:32:05.137Z,38.10
2018-06-28T16:34:32.748Z,38.10
2018-06-28T16:37:00.443Z,37.90
2018-06-28T16:39:28.129Z,38.00
2018-06-28T16:41:55.929Z,37.80
2018-06-28T16:44:23.581Z,38.00
2018-06-28T16:46:51.246Z,38.20
2018-06-28T16:49:18.854Z,38.40
2018-06-28T16:51:46.469Z,38.50
2018-06-28T16:54:14.084Z,38.60
2018-06-28T16:56:41.756Z,38.50
2018-06-28T16:59:09.386Z,38.50
2018-06-28T17:01:37.128Z,38.10
2018-06-28T17:04:04.968Z,37.70
2018-06-28T17:06:32.740Z,37.90
2018-06-28T17:09:00.390Z,37.90
2018-06-28T17:11:28.066Z,38.00
2018-06-28T17:13:55.689Z,38.30
2018-06-28T17:16:23.285Z,38.10
2018-06-28T17:18:51.790Z,38.30
2018-06-28T17:21:19.401Z,37.60
2018-06-28T17:23:46.994Z,38.00
2018-06-28T17:26:14.629Z,38.20
2018-06-28T17:28:42.185Z,38.20
2018-06-28T17:31:09.805Z,38.80
2018-06-28T17:33:37.381Z,39.20
2018-06-28T17:36:04.993Z,39.70
2018-06-28T17:38:32.580Z,40.00
2018-06-28T17:41:00.294Z,40.00
2018-06-28T17:43:27.922Z,40.00
2018-06-28T17:45:55.627Z,40.10
2018-06-28T17:48:23.253Z,40.60
2018-06-28T17:50:50.869Z,40.90
2018-06-28T17:53:18.479Z,40.90
2018-06-28T17:55:46.085Z,40.60
2018-06-28T17:58:13.742Z,40.10
2018-06-28T18:00:41.353Z,39.70
2018-06-28T18:03:08.975Z,39.80
2018-06-28T18:05:36.589Z,40.00
2018-06-28T18:08:04.186Z,40.40
2018-06-28T18:10:31.802Z,40.90
2018-06-28T18:12:59.368Z,41.20
2018-06-28T18:15:26.970Z,41.50
2018-06-28T18:17:54.547Z,41.50
2018-06-28T18:20:22.168Z,41.80
2018-06-28T18:22:49.805Z,42.10
2018-06-28T18:25:17.423Z,41.90
2018-06-28T18:27:45.023Z,42.10
2018-06-28T18:30:12.650Z,42.30
2018-06-28T18:32:40.320Z,42.30
2018-06-28T18:35:08.005Z,42.20
2018-06-28T18:37:35.616Z,42.50
2018-06-28T18:40:03.917Z,42.70
2018-06-28T18:42:38.146Z,42.60
2018-06-28T18:45:05.910Z,42.70
2018-06-28T18:47:33.529Z,42.60
2018-06-28T18:50:01.150Z,42.70
2018-06-28T18:52:28.738Z,43.00
2018-06-28T18:54:56.520Z,43.10
2018-06-28T18:57:24.203Z,43.10
2018-06-28T18:59:51.815Z,43.50
2018-06-28T19:02:19.426Z,43.80
2018-06-28T19:04:47.280Z,43.90
2018-06-28T19:07:14.903Z,44.10
2018-06-28T19:09:48.522Z,44.20
2018-06-28T19:12:16.165Z,44.60
2018-06-28T19:14:49.488Z,44.70
2018-06-28T19:17:17.130Z,44.80
2018-06-28T19:19:44.760Z,45.00
2018-06-28T19:22:18.106Z,45.20
2018-06-28T19:24:45.767Z,45.50
2018-06-28T19:27:13.393Z,45.90
2018-06-28T19:29:46.838Z,46.30
2018-06-28T19:32:20.049Z,46.40
2018-06-28T19:34:47.977Z,46.90
2018-06-28T19:37:21.208Z,47.50
2018-06-28T19:39:54.403Z,47.80
2018-06-28T19:42:27.700Z,48.10
2018-06-28T19:44:55.480Z,48.50
2018-06-28T19:47:23.136Z,48.70
2018-06-28T19:49:56.455Z,49.10
2018-06-28T19:52:29.742Z,49.20
2018-06-28T19:54:57.453Z,49.40
2018-06-28T19:57:32.847Z,49.80
2018-06-28T20:00:00.657Z,50.20
2018-06-28T20:02:33.850Z,50.60
2018-06-28T20:05:01.705Z,50.70
2018-06-28T20:07:29.157Z,50.90
2018-06-28T20:09:56.957Z,50.90
2018-06-28T20:12:30.179Z,51.60
2018-06-28T20:15:03.317Z,51.90
2018-06-28T20:17:36.528Z,52.20
2018-06-28T20:20:09.960Z,52.30
2018-06-28T20:22:37.743Z,52.60
2018-06-28T20:25:05.410Z,53.10
2018-06-28T20:28:37.249Z,53.20
2018-06-28T20:31:10.533Z,52.70
2018-06-28T20:33:43.844Z,53.20
2018-06-28T20:36:11.516Z,53.50
2018-06-28T20:38:39.209Z,53.50
2018-06-28T20:41:06.887Z,53.50
2018-06-28T20:43:34.574Z,53.80
2018-06-28T20:46:02.321Z,54.00
2018-06-28T20:48:29.997Z,54.10
2018-06-28T20:50:57.705Z,54.20
2018-06-28T20:53:25.349Z,54.50
2018-06-28T20:55:53.049Z,54.60
2018-06-28T20:58:20.733Z,54.50
2018-06-28T21:00:48.510Z,54.70
2018-06-28T21:03:16.135Z,54.90
2018-06-28T21:05:43.762Z,54.90
2018-06-28T21:08:11.410Z,55.30
2018-06-28T21:10:39.037Z,55.30
2018-06-28T21:13:06.686Z,55.80
2018-06-28T21:15:34.330Z,56.20
2018-06-28T21:18:02.000Z,56.70
2018-06-28T21:20:29.682Z,57.10
2018-06-28T21:22:57.401Z,57.00
2018-06-28T21:25:25.099Z,57.40
2018-06-28T21:27:52.766Z,58.00
2018-06-28T21:30:24.271Z,58.10
2018-06-28T21:32:51.889Z,58.50
2018-06-28T21:35:19.555Z,58.60
2018-06-28T21:37:47.134Z,59.20
2018-06-28T21:40:14.834Z,59.50
2018-06-28T21:42:42.455Z,59.30
2018-06-28T21:45:10.158Z,59.90
2018-06-28T21:47:37.759Z,60.20
2018-06-28T21:50:05.428Z,60.10
2018-06-28T21:52:33.005Z,61.00
2018-06-28T21:55:00.583Z,60.30
2018-06-28T21:57:28.224Z,60.70
2018-06-28T21:59:55.848Z,60.60
2018-06-28T22:02:23.518Z,60.80
2018-06-28T22:04:51.157Z,60.60
2018-06-28T22:07:18.765Z,60.70
2018-06-28T22:09:46.307Z,61.00
2018-06-28T22:12:13.910Z,60.80
2018-06-28T22:14:41.526Z,61.10
2018-06-28T22:17:09.142Z,61.00
2018-06-28T22:19:36.756Z,60.70
2018-06-28T22:22:04.358Z,60.80
2018-06-28T22:24:38.694Z,60.90
2018-06-28T22:27:06.282Z,60.80
2018-06-28T22:29:33.909Z,60.40
2018-06-28T22:34:28.977Z,60.60
2018-06-28T22:36:56.602Z,60.90
2018-06-28T22:39:24.204Z,60.70
2018-06-28T22:41:51.761Z,61.00
2018-06-28T22:44:19.328Z,61.40
2018-06-28T22:46:46.942Z,61.60
2018-06-28T22:49:14.570Z,62.00
2018-06-28T22:51:42.140Z,62.00
2018-06-28T22:54:09.729Z,62.50
2018-06-28T22:56:37.311Z,62.40
2018-06-28T22:59:04.871Z,63.10
2018-06-28T23:01:32.542Z,62.80
2018-06-28T23:04:00.154Z,63.60
2018-06-28T23:06:27.793Z,63.00
2018-06-28T23:08:55.358Z,64.40
2018-06-28T23:11:23.052Z,64.00
2018-06-28T23:13:50.849Z,64.50
2018-06-28T23:16:18.431Z,65.90
2018-06-28T23:18:46.029Z,65.60
2018-06-28T23:21:13.611Z,66.20
2018-06-28T23:23:41.311Z,66.70
2018-06-28T23:26:08.761Z,67.40
2018-06-28T23:28:36.380Z,67.00
2018-06-28T23:31:03.974Z,67.60
2018-06-28T23:33:31.533Z,68.70
2018-06-28T23:35:59.126Z,69.00
2018-06-28T23:40:54.185Z,69.90
2018-06-28T23:43:21.746Z,70.00
2018-06-28T23:45:49.332Z,70.50
2018-06-28T23:48:16.893Z,71.60
2018-06-28T23:50:44.477Z,72.40
2018-06-28T23:53:12.074Z,72.00
2018-06-28T23:55:39.662Z,72.60
2018-06-28T23:58:07.243Z,73.60
